Главная страница
METAR-TAF:

METAR-TAF

Аэропорты :

Стокгольм-Бромма

Стокгольм, Швеция

широта: 59-21N, долгота: 017-57E, высота над уровнем моря: 14 м

Текущие метеонаблюдения

Эта сводка был подготовлена 37 минут назад, в 15:50 UTC
Ветер 8 Узел от северо-восточный, изменяющийся между северо-северо-восточный и восточный
Температура 18°C
Влажность 45%
Давление 1009 hPa
Видимость 10 км и более

METAR: ESSB 221550Z AUTO 05008KT 030V090 9999 BKN110/// 18/06 Q1009

Время: 18:27 (16:27 UTC)

Прогноз

Эта сводка был подготовлена 4 часа и 57 минут назад, в 11:30 UTC
Прогноз действительный с 22-го 12 UTC до 22-го 16 UTC
Ветер 11 Узел от восточно-юго-восточный
Видимость 10 км и более
Нет облачности ниже 1500 м, и нет кучево-дождевой облачности

TAF: ESSB 221130Z 2212/2216 11011KT CAVOK

Метеонаблюдения и прогнозы для более 4000 аэропортов (сводки METAR и TAF).

Имеющиеся станции представлены на карте желтыми и красными точками.

Чтобы увидеть название станции, наведите на нее мышь.

Затем щелкните, чтобы увидеть метеонаблюдения и метеопрогнозы.

Управление картой: чтобы увеличить масштаб, щелкните зеленые кнопки с черным крестиком; чтобы уменьшить масштаб, щелкните зеленую кнопку с тире; для просмотра соседних карт щелкайте зеленые стрелки.


METAR-TAF: